Emu Arrow — C6OR4 — position and weather

sailwx.info

Track history (hours):
 
Tides and Currents Weather Stations Pressure Air Temp Water Temp Dewpoint Dewpoint Depression Visibility Wind Speed Wind Dir Waves Ship Positions

Emu Arrow

Last reported at 2015-Jul-25 22:07 UTC. Time now 2015-Aug-04 13:50 UTC.
Position S 26°36' E 153°46'.
Warning: this ship's position is 9 days out of date.

Length 200 m; draft 10.1 m.

Type: Cargo ship. MMSI: 309805000.

Date/timePositionNaut miles runAvg speedWind from/ knotsBaromVisibWave heightAir tempDewpointWater temp
2015-Jul-25 22:07S 26°36' E 153°46'610.4
2015-Jul-25 21:33S 26°42' E 153°47'1010.3
2015-Jul-25 20:33S 26°52' E 153°48'1010.2
2015-Jul-25 19:33S 27°02' E 153°49'1010.1
2015-Jul-25 18:33S 27°12' E 153°49'1010.4
2015-Jul-25 17:34S 27°22' E 153°49'1010.4
2015-Jul-25 16:33S 27°33' E 153°49'1010.0
2015-Jul-25 15:32S 27°43' E 153°50'1010.1
2015-Jul-25 14:33S 27°53' E 153°50'10 9.9
2015-Jul-25 13:33S 28°03' E 153°49'10 9.7
2015-Jul-25 12:33S 28°12' E 153°48'263 9.9
2015-Jul-24 10:09S 32°28' E 152°38'1111.0
2015-Jul-24 09:12S 32°36' E 152°30'711.6
2015-Jul-24 08:33S 32°41' E 152°23'1110.7
2015-Jul-24 07:33S 32°48' E 152°14'1110.7
2015-Jul-24 06:34S 32°53' E 152°03'1110.8
2015-Jul-24 05:33S 32°58' E 151°51'5 5.1
2015-Jul-24 04:33S 32°55' E 151°46'0 0.0
2015-Jul-24 03:33S 32°55' E 151°46'0 0.0
2015-Jul-24 02:33S 32°55' E 151°46'0 0.0
2015-Jul-24 01:33S 32°55' E 151°46'0 0.0
2015-Jul-24 00:33S 32°55' E 151°46'0 0.0
2015-Jul-23 23:33S 32°55' E 151°46'0 0.0
2015-Jul-23 22:33S 32°55' E 151°46'0 0.0
2015-Jul-23 21:33S 32°55' E 151°46'0 0.0
2015-Jul-23 20:33S 32°55' E 151°46'0 0.0
2015-Jul-23 19:33S 32°55' E 151°46'0 0.0
2015-Jul-23 18:30S 32°55' E 151°46'0 0.0
2015-Jul-23 17:33S 32°55' E 151°46'0 0.0
2015-Jul-23 16:33S 32°55' E 151°46'0 0.0
2015-Jul-23 15:33S 32°55' E 151°46'0 0.0
2015-Jul-23 14:27S 32°55' E 151°46'0 0.0
2015-Jul-23 13:33S 32°55' E 151°46'0 0.0
2015-Jul-23 12:33S 32°55' E 151°46'0 0.0
2015-Jul-23 11:33S 32°55' E 151°46'0 0.0
2015-Jul-23 10:33S 32°55' E 151°46'0 0.0
2015-Jul-23 09:33S 32°55' E 151°46'0 0.0
2015-Jul-23 08:27S 32°55' E 151°46'0 0.0
2015-Jul-23 07:33S 32°55' E 151°46'0 0.0
2015-Jul-23 06:33S 32°55' E 151°46'0 0.0
2015-Jul-23 05:33S 32°55' E 151°46'0 0.0
2015-Jul-23 04:33S 32°55' E 151°46'0 0.0
2015-Jul-23 03:33S 32°55' E 151°46'0 0.0
2015-Jul-23 02:33S 32°55' E 151°46'0 0.4
2015-Jul-23 01:33S 32°55' E 151°46'1 1.0
2015-Jul-23 00:31S 32°54' E 151°46'0 0.0
2015-Jul-22 23:31S 32°54' E 151°46'0 0.0
2015-Jul-22 22:31S 32°54' E 151°46'0 0.0
2015-Jul-22 21:31S 32°54' E 151°46'0 0.0
2015-Jul-22 20:31S 32°54' E 151°46'0 0.0
2015-Jul-22 19:31S 32°54' E 151°46'0 0.0
2015-Jul-22 18:31S 32°54' E 151°46'0 0.0
2015-Jul-22 17:31S 32°54' E 151°46'0 0.0
2015-Jul-22 16:31S 32°54' E 151°46'0 0.0
2015-Jul-22 15:28S 32°54' E 151°46'0 0.0
2015-Jul-22 14:31S 32°54' E 151°46'0 0.0
2015-Jul-22 13:33S 32°54' E 151°46'0 0.0
2015-Jul-22 12:33S 32°54' E 151°46'0 0.0
2015-Jul-22 11:33S 32°54' E 151°46'0 0.0
2015-Jul-22 10:33S 32°54' E 151°46'0 0.0
2015-Jul-22 09:33S 32°54' E 151°46'0 0.0
2015-Jul-22 08:33S 32°54' E 151°46'0 0.0
2015-Jul-22 07:33S 32°54' E 151°46'0 0.0
2015-Jul-22 06:33S 32°54' E 151°46'0 0.0
2015-Jul-22 05:33S 32°54' E 151°46'0 0.0
2015-Jul-22 04:33S 32°54' E 151°46'0 0.0
2015-Jul-22 03:34S 32°54' E 151°46'0 0.0
2015-Jul-22 02:34S 32°54' E 151°46'1 1.4
2015-Jul-22 01:33S 32°55' E 151°47'6 6.3
2015-Jul-22 00:32S 32°59' E 151°53'4 3.8
2015-Jul-21 23:33S 33°02' E 151°56'1 1.0
2015-Jul-21 22:33S 33°02' E 151°57'5 4.6
2015-Jul-21 21:33S 33°05' E 152°01'6 6.1
2015-Jul-21 20:33S 33°08' E 152°07'1010.1
2015-Jul-21 19:33S 33°14' E 152°17'  
Track history (hours):
 
Tides and Currents Weather Stations Pressure Air Temp Water Temp Dewpoint Dewpoint Depression Visibility Wind Speed Wind Dir Waves Ship Positions

Emu Arrow

Last reported at 2015-Jul-25 22:07 UTC. Time now 2015-Aug-04 13:50 UTC.
Position S 26°36' E 153°46'.
Warning: this ship's position is 9 days out of date.

Length 200 m; draft 10.1 m.

Type: Cargo ship. MMSI: 309805000.

Date/timePositionNaut miles runAvg speedWind from/ knotsBaromVisibWave heightAir tempDewpointWater temp
2015-Jul-25 22:07S 26°36' E 153°46'610.4
2015-Jul-25 21:33S 26°42' E 153°47'1010.3
2015-Jul-25 20:33S 26°52' E 153°48'1010.2
2015-Jul-25 19:33S 27°02' E 153°49'1010.1
2015-Jul-25 18:33S 27°12' E 153°49'1010.4
2015-Jul-25 17:34S 27°22' E 153°49'1010.4
2015-Jul-25 16:33S 27°33' E 153°49'1010.0
2015-Jul-25 15:32S 27°43' E 153°50'1010.1
2015-Jul-25 14:33S 27°53' E 153°50'10 9.9
2015-Jul-25 13:33S 28°03' E 153°49'10 9.7
2015-Jul-25 12:33S 28°12' E 153°48'263 9.9
2015-Jul-24 10:09S 32°28' E 152°38'1111.0
2015-Jul-24 09:12S 32°36' E 152°30'711.6
2015-Jul-24 08:33S 32°41' E 152°23'1110.7
2015-Jul-24 07:33S 32°48' E 152°14'1110.7
2015-Jul-24 06:34S 32°53' E 152°03'1110.8
2015-Jul-24 05:33S 32°58' E 151°51'5 5.1
2015-Jul-24 04:33S 32°55' E 151°46'0 0.0
2015-Jul-24 03:33S 32°55' E 151°46'0 0.0
2015-Jul-24 02:33S 32°55' E 151°46'0 0.0
2015-Jul-24 01:33S 32°55' E 151°46'0 0.0
2015-Jul-24 00:33S 32°55' E 151°46'0 0.0
2015-Jul-23 23:33S 32°55' E 151°46'0 0.0
2015-Jul-23 22:33S 32°55' E 151°46'0 0.0
2015-Jul-23 21:33S 32°55' E 151°46'0 0.0
2015-Jul-23 20:33S 32°55' E 151°46'0 0.0
2015-Jul-23 19:33S 32°55' E 151°46'0 0.0
2015-Jul-23 18:30S 32°55' E 151°46'0 0.0
2015-Jul-23 17:33S 32°55' E 151°46'0 0.0
2015-Jul-23 16:33S 32°55' E 151°46'0 0.0
2015-Jul-23 15:33S 32°55' E 151°46'0 0.0
2015-Jul-23 14:27S 32°55' E 151°46'0 0.0
2015-Jul-23 13:33S 32°55' E 151°46'0 0.0
2015-Jul-23 12:33S 32°55' E 151°46'0 0.0
2015-Jul-23 11:33S 32°55' E 151°46'0 0.0
2015-Jul-23 10:33S 32°55' E 151°46'0 0.0
2015-Jul-23 09:33S 32°55' E 151°46'0 0.0
2015-Jul-23 08:27S 32°55' E 151°46'0 0.0
2015-Jul-23 07:33S 32°55' E 151°46'0 0.0
2015-Jul-23 06:33S 32°55' E 151°46'0 0.0
2015-Jul-23 05:33S 32°55' E 151°46'0 0.0
2015-Jul-23 04:33S 32°55' E 151°46'0 0.0
2015-Jul-23 03:33S 32°55' E 151°46'0 0.0
2015-Jul-23 02:33S 32°55' E 151°46'0 0.4
2015-Jul-23 01:33S 32°55' E 151°46'1 1.0
2015-Jul-23 00:31S 32°54' E 151°46'0 0.0
2015-Jul-22 23:31S 32°54' E 151°46'0 0.0
2015-Jul-22 22:31S 32°54' E 151°46'0 0.0
2015-Jul-22 21:31S 32°54' E 151°46'0 0.0
2015-Jul-22 20:31S 32°54' E 151°46'0 0.0
2015-Jul-22 19:31S 32°54' E 151°46'0 0.0
2015-Jul-22 18:31S 32°54' E 151°46'0 0.0
2015-Jul-22 17:31S 32°54' E 151°46'0 0.0
2015-Jul-22 16:31S 32°54' E 151°46'0 0.0
2015-Jul-22 15:28S 32°54' E 151°46'0 0.0
2015-Jul-22 14:31S 32°54' E 151°46'0 0.0
2015-Jul-22 13:33S 32°54' E 151°46'0 0.0
2015-Jul-22 12:33S 32°54' E 151°46'0 0.0
2015-Jul-22 11:33S 32°54' E 151°46'0 0.0
2015-Jul-22 10:33S 32°54' E 151°46'0 0.0
2015-Jul-22 09:33S 32°54' E 151°46'0 0.0
2015-Jul-22 08:33S 32°54' E 151°46'0 0.0
2015-Jul-22 07:33S 32°54' E 151°46'0 0.0
2015-Jul-22 06:33S 32°54' E 151°46'0 0.0
2015-Jul-22 05:33S 32°54' E 151°46'0 0.0
2015-Jul-22 04:33S 32°54' E 151°46'0 0.0
2015-Jul-22 03:34S 32°54' E 151°46'0 0.0
2015-Jul-22 02:34S 32°54' E 151°46'1 1.4
2015-Jul-22 01:33S 32°55' E 151°47'6 6.3
2015-Jul-22 00:32S 32°59' E 151°53'4 3.8
2015-Jul-21 23:33S 33°02' E 151°56'1 1.0
2015-Jul-21 22:33S 33°02' E 151°57'5 4.6
2015-Jul-21 21:33S 33°05' E 152°01'6 6.1
2015-Jul-21 20:33S 33°08' E 152°07'1010.1
2015-Jul-21 19:33S 33°14' E 152°17'  

Dump ship's entire track history